Aeroporto :
LOGIN :

Iscrizione | Disclaimer

   EN    FR    IT 

 










Sommario :    VFR   VFR Marginale   IFR   IFR Intensivo   IFR Molto Intensivo
Visibilità : 
Base nubi : 
>= 8 km
>= 3000ft
5 / 8 km
1000 / 3000 ft
1500m / 5 km
500 / 1000 ft
800 / 1500m
200 / 500 ft
< 800m
< 200 ft
Simboli :   Temporali  Nebbia  Neve Forte  Precipitazioni Forti  Vento > 20 kt
SIGMETs :   Varie  Temporali  Ghiacco  Turbolenza  Onda orograficha  Ceneri Vulcaniche






- Altitudine del aeroporto : 184 ft
- Codice IATA : BRU


EBBR - Bruxelles

ULTIMO METAR :
  • 071850Z 22009KT 9999 FEW028 BKN037 09/06 Q1015 NOSIG

METARs OBSOLETI :
  • 071820Z 22008KT 9999 FEW034 BKN038 08/06 Q1015 NOSIG
  • 071750Z 22008KT 9999 BKN037 08/05 Q1015 NOSIG
  • 071720Z 23007KT 9999 SCT038 BKN044 08/05 Q1015 NOSIG
  • 071650Z 22007KT 9999 SCT038 BKN044 08/05 Q1015 NOSIG

TAF TAF EBBR
Valido dal 07 a 18 ore il 09 a 00 ore UTC


071710Z 0718/0824 22009KT 9999 FEW015 BKN035
BECMG 0802/0804 22018G30KT BKN011
TEMPO 0806/0810 4000 RA
BECMG 0810/0812 24016KT FEW018
PROB40
TEMPO 0816/0820 23016G26KT 3500 SHRA BKN014CB



MetMap, La meteo Aeronautica in un colpo d'occhio ! - Copyright ORBIFLY Dicembre 2007 - Disclaimer

ORBIFLY MET'MAP TEAM :

Programmazione e sviluppo : Alexandra Zaïnal
Concezione : Baudouin d'Aumeries
Aiuto per la programmazione : Marc-Olivier Méhu
Supporto tecnico e logistico : Manuel Goepfert
Aiuto per la traduzione : Arnaldo La Scala

Contatto : metmap@orbifly.com




FONTI E CREDITI :

   NOAA